createdAt,value
2022-09-07T00:01:48.347Z,19.90
2022-09-07T00:04:15.030Z,19.87
2022-09-07T00:06:41.708Z,19.86
2022-09-07T00:09:08.383Z,19.83
2022-09-07T00:11:34.933Z,19.83
2022-09-07T00:14:01.584Z,19.81
2022-09-07T00:16:30.144Z,19.81
2022-09-07T00:18:59.545Z,19.80
2022-09-07T00:21:26.998Z,19.80
2022-09-07T00:23:53.853Z,19.79
2022-09-07T00:26:23.760Z,19.82
2022-09-07T00:28:50.895Z,19.82
2022-09-07T00:31:22.967Z,19.80
2022-09-07T00:33:51.567Z,19.82
2022-09-07T00:36:19.447Z,19.83
2022-09-07T00:38:46.148Z,19.82
2022-09-07T00:41:13.629Z,19.85
2022-09-07T00:43:43.262Z,19.86
2022-09-07T00:46:15.622Z,19.87
2022-09-07T00:48:49.050Z,19.88
2022-09-07T00:51:23.771Z,19.92
2022-09-07T00:53:58.301Z,19.94
2022-09-07T00:56:28.358Z,19.96
2022-09-07T00:58:55.136Z,20.00
2022-09-07T01:01:21.838Z,20.01
2022-09-07T01:03:51.518Z,20.03
2022-09-07T01:06:21.803Z,20.06
2022-09-07T01:08:50.167Z,20.07
2022-09-07T01:11:22.003Z,20.09
2022-09-07T01:13:51.276Z,20.09
2022-09-07T01:16:46.705Z,20.08
2022-09-07T01:19:57.431Z,20.05
2022-09-07T01:22:51.460Z,20.05
2022-09-07T01:25:46.415Z,20.04
2022-09-07T01:28:23.656Z,20.06
2022-09-07T01:31:17.745Z,20.02
2022-09-07T01:34:09.145Z,20.01
2022-09-07T01:37:07.700Z,19.98
2022-09-07T01:39:42.783Z,19.99
2022-09-07T01:42:13.269Z,19.97
2022-09-07T01:44:46.066Z,19.95
2022-09-07T01:47:17.714Z,19.94
2022-09-07T01:49:52.917Z,19.91
2022-09-07T01:52:27.586Z,19.89
2022-09-07T01:55:05.802Z,19.87
2022-09-07T01:57:40.080Z,19.85
2022-09-07T02:00:15.453Z,19.83
2022-09-07T02:03:33.619Z,19.80
2022-09-07T02:06:00.175Z,19.80
2022-09-07T02:08:31.808Z,19.82
2022-09-07T02:11:05.353Z,19.80
2022-09-07T02:13:37.963Z,19.80
2022-09-07T02:16:11.136Z,19.79
2022-09-07T02:18:44.036Z,19.79
2022-09-07T02:21:11.513Z,19.79
2022-09-07T02:23:53.218Z,19.78
2022-09-07T02:26:22.437Z,19.78
2022-09-07T02:28:49.287Z,19.79
2022-09-07T02:31:16.195Z,19.79
2022-09-07T02:33:43.282Z,19.79
2022-09-07T02:36:13.137Z,19.80
2022-09-07T02:38:39.963Z,19.81
2022-09-07T02:41:26.502Z,19.79
2022-09-07T02:43:53.304Z,19.80
2022-09-07T02:46:30.806Z,19.79
2022-09-07T02:49:06.373Z,19.78
2022-09-07T02:51:55.877Z,19.75
2022-09-07T02:54:30.956Z,19.79
2022-09-07T02:57:19.615Z,19.80
2022-09-07T03:00:09.702Z,19.78
2022-09-07T03:02:59.727Z,19.79
2022-09-07T03:05:47.447Z,19.79
2022-09-07T03:08:26.026Z,19.78
2022-09-07T03:10:53.587Z,19.80
2022-09-07T03:13:21.515Z,19.79
2022-09-07T03:15:50.437Z,19.78
2022-09-07T03:18:20.353Z,19.78
2022-09-07T03:20:46.923Z,19.77
2022-09-07T03:23:13.559Z,19.76
2022-09-07T03:25:40.171Z,19.74
2022-09-07T03:28:07.224Z,19.71
2022-09-07T03:30:33.921Z,19.69
2022-09-07T03:33:00.543Z,19.68
2022-09-07T03:35:27.496Z,19.66
2022-09-07T03:37:54.063Z,19.66
2022-09-07T03:40:20.624Z,19.64
2022-09-07T03:42:49.890Z,19.65
2022-09-07T03:45:16.942Z,19.65
2022-09-07T03:47:43.690Z,19.64
2022-09-07T03:50:10.279Z,19.63
2022-09-07T03:52:37.702Z,19.63
2022-09-07T03:55:05.107Z,19.61
2022-09-07T03:57:31.728Z,19.61
2022-09-07T03:59:58.304Z,19.63
2022-09-07T04:02:24.971Z,19.62
2022-09-07T04:04:51.622Z,19.63
2022-09-07T04:07:18.270Z,19.64
2022-09-07T04:09:44.947Z,19.65
2022-09-07T04:12:11.619Z,19.67
2022-09-07T04:14:38.202Z,19.67
2022-09-07T04:17:04.833Z,19.68
2022-09-07T04:19:31.466Z,19.69
2022-09-07T04:21:58.008Z,19.71
2022-09-07T04:24:24.885Z,19.71
2022-09-07T04:26:51.545Z,19.71
2022-09-07T04:29:18.246Z,19.72
2022-09-07T04:31:44.996Z,19.71
2022-09-07T04:34:11.996Z,19.72
2022-09-07T04:36:38.631Z,19.72
2022-09-07T04:39:05.712Z,19.72
2022-09-07T04:41:33.698Z,19.72
2022-09-07T04:44:02.334Z,19.73
2022-09-07T04:46:31.985Z,19.74
2022-09-07T04:49:01.284Z,19.77
2022-09-07T04:51:30.689Z,19.78
2022-09-07T04:53:59.257Z,19.79
2022-09-07T04:56:26.635Z,19.80
2022-09-07T04:58:53.525Z,19.81
2022-09-07T05:01:22.849Z,19.83
2022-09-07T05:03:50.288Z,19.83
2022-09-07T05:06:18.368Z,19.83
2022-09-07T05:08:46.457Z,19.74
2022-09-07T05:11:13.558Z,19.76
2022-09-07T05:13:40.404Z,19.88
2022-09-07T05:16:09.285Z,19.91
2022-09-07T05:18:36.462Z,19.93
2022-09-07T05:21:09.188Z,19.92
2022-09-07T05:23:35.818Z,19.96
2022-09-07T05:26:04.175Z,19.99
2022-09-07T05:28:31.212Z,20.00
2022-09-07T05:31:23.502Z,20.01
2022-09-07T05:36:39.574Z,20.06
2022-09-07T05:39:07.335Z,20.11
2022-09-07T05:41:34.441Z,20.11
2022-09-07T05:46:47.694Z,20.18
2022-09-07T05:49:14.489Z,20.23
2022-09-07T05:51:41.171Z,20.26
2022-09-07T05:54:07.823Z,20.33
2022-09-07T05:56:36.228Z,20.38
2022-09-07T05:59:03.678Z,20.43
2022-09-07T06:01:30.658Z,20.47
2022-09-07T06:03:57.775Z,20.54
2022-09-07T06:06:24.470Z,20.60
2022-09-07T06:08:52.557Z,20.68
2022-09-07T06:11:23.318Z,20.61
2022-09-07T06:13:50.643Z,20.75
2022-09-07T06:16:18.337Z,20.83
2022-09-07T06:18:47.137Z,20.90
2022-09-07T06:21:15.081Z,20.97
2022-09-07T06:23:43.166Z,21.05
2022-09-07T06:26:10.659Z,21.14
2022-09-07T06:28:39.549Z,21.22
2022-09-07T06:31:14.813Z,21.32
2022-09-07T06:33:42.708Z,21.40
2022-09-07T06:36:17.614Z,21.47
2022-09-07T06:38:45.089Z,21.55
2022-09-07T06:44:18.399Z,21.66
2022-09-07T06:49:31.828Z,21.73
2022-09-07T06:51:58.388Z,21.74
2022-09-07T06:57:11.794Z,21.73
2022-09-07T06:59:38.554Z,21.75
2022-09-07T07:02:06.278Z,21.74
2022-09-07T07:04:37.817Z,21.75
2022-09-07T07:07:10.670Z,21.77
2022-09-07T07:09:37.311Z,21.75
2022-09-07T07:12:04.057Z,21.76
2022-09-07T07:14:33.799Z,21.76
2022-09-07T07:17:01.669Z,21.78
2022-09-07T07:19:28.620Z,21.81
2022-09-07T07:22:29.663Z,21.86
2022-09-07T07:24:42.538Z,21.92
2022-09-07T07:27:09.189Z,22.04
2022-09-07T07:29:35.739Z,22.13
2022-09-07T07:32:02.590Z,22.23
2022-09-07T07:34:29.423Z,22.35
2022-09-07T07:36:56.055Z,22.47
2022-09-07T07:42:09.859Z,22.74
2022-09-07T07:44:36.409Z,22.88
2022-09-07T07:47:03.189Z,23.01
2022-09-07T07:49:29.848Z,23.12
2022-09-07T07:54:43.732Z,23.37
2022-09-07T07:57:10.416Z,23.50
2022-09-07T07:59:37.336Z,23.63
2022-09-07T08:02:06.014Z,23.75
2022-09-07T08:04:35.444Z,23.87
2022-09-07T08:07:09.219Z,23.99
2022-09-07T08:09:41.167Z,24.09
2022-09-07T08:12:08.868Z,24.19
2022-09-07T08:14:35.655Z,24.29
2022-09-07T08:17:02.387Z,24.39
2022-09-07T08:19:28.948Z,24.47
2022-09-07T08:21:55.434Z,24.56
2022-09-07T08:24:22.248Z,24.65
2022-09-07T08:26:49.024Z,24.71
2022-09-07T08:29:15.595Z,24.76
2022-09-07T08:31:42.503Z,24.85
2022-09-07T08:34:09.044Z,24.89
2022-09-07T08:36:35.786Z,24.95
2022-09-07T08:39:02.451Z,25.01
2022-09-07T08:41:46.189Z,25.02
2022-09-07T08:44:18.775Z,25.02
2022-09-07T08:46:49.763Z,25.05
2022-09-07T08:49:21.219Z,25.05
2022-09-07T08:51:55.115Z,25.08
2022-09-07T08:54:21.715Z,25.08
2022-09-07T08:59:54.304Z,25.12
2022-09-07T09:02:28.711Z,25.15
2022-09-07T09:07:55.872Z,25.22
2022-09-07T09:10:36.723Z,25.28
2022-09-07T09:13:18.394Z,25.31
2022-09-07T09:15:51.758Z,25.35
2022-09-07T09:18:40.153Z,25.41
2022-09-07T09:21:13.796Z,25.46
2022-09-07T09:23:42.379Z,25.53
2022-09-07T09:26:14.759Z,25.60
2022-09-07T09:28:41.327Z,25.67
2022-09-07T09:31:17.260Z,25.71
2022-09-07T09:33:44.070Z,25.77
2022-09-07T09:37:00.070Z,25.77
2022-09-07T09:39:34.078Z,25.87
2022-09-07T15:48:21.428Z,32.90
2022-09-07T15:50:49.060Z,32.95
2022-09-07T15:56:03.517Z,32.93
2022-09-07T15:58:30.023Z,32.81
2022-09-07T16:03:51.861Z,32.26
2022-09-07T16:06:18.534Z,31.97
2022-09-07T16:08:45.351Z,31.63
2022-09-07T16:11:26.429Z,31.29
2022-09-07T16:14:01.345Z,30.97
2022-09-07T16:19:20.606Z,30.43
2022-09-07T16:21:47.342Z,30.23
2022-09-07T16:24:13.907Z,30.09
2022-09-07T16:26:40.382Z,29.96
2022-09-07T16:29:07.034Z,29.85
2022-09-07T16:31:33.988Z,29.76
2022-09-07T16:34:02.287Z,29.65
2022-09-07T16:36:30.343Z,29.55
2022-09-07T16:38:59.435Z,29.44
2022-09-07T16:41:28.633Z,29.31
2022-09-07T16:43:55.949Z,29.20
2022-09-07T16:46:25.620Z,29.07
2022-09-07T16:48:53.075Z,28.95
2022-09-07T16:51:21.366Z,28.82
2022-09-07T16:53:49.323Z,28.69
2022-09-07T16:56:17.267Z,28.46
2022-09-07T16:58:46.536Z,28.47
2022-09-07T17:01:16.177Z,28.37
2022-09-07T17:03:43.296Z,28.26
2022-09-07T17:06:12.475Z,28.15
2022-09-07T17:08:40.138Z,28.04
2022-09-07T17:11:09.960Z,27.94
2022-09-07T17:13:38.224Z,27.82
2022-09-07T17:16:13.428Z,27.69
2022-09-07T17:21:30.012Z,27.44
2022-09-07T17:23:56.753Z,27.33
2022-09-07T17:26:26.579Z,27.21
2022-09-07T17:28:59.772Z,27.08
2022-09-07T17:34:16.787Z,26.84
2022-09-07T17:36:43.257Z,26.73
2022-09-07T17:39:19.158Z,26.62
2022-09-07T17:41:47.967Z,26.50
2022-09-07T17:44:14.975Z,26.40
2022-09-07T17:46:41.509Z,26.30
2022-09-07T17:49:09.736Z,26.22
2022-09-07T17:51:36.251Z,26.14
2022-09-07T17:54:12.939Z,26.06
2022-09-07T17:56:41.272Z,25.98
2022-09-07T18:01:55.473Z,25.75
2022-09-07T18:04:22.145Z,25.81
2022-09-07T18:06:48.961Z,25.78
2022-09-07T18:09:15.752Z,25.72
2022-09-07T18:11:46.867Z,25.67
2022-09-07T18:14:14.589Z,25.62
2022-09-07T18:16:42.487Z,25.58
2022-09-07T18:19:10.902Z,25.53
2022-09-07T18:21:38.107Z,25.49
2022-09-07T18:24:16.357Z,25.42
2022-09-07T18:26:43.162Z,25.38
2022-09-07T18:29:27.325Z,25.31
2022-09-07T18:31:55.783Z,25.23
2022-09-07T18:34:22.510Z,25.14
2022-09-07T18:36:49.235Z,25.05
2022-09-07T18:39:16.014Z,24.96
2022-09-07T18:41:42.509Z,24.88
2022-09-07T18:46:55.707Z,24.71
2022-09-07T18:49:22.297Z,24.66
2022-09-07T18:54:35.415Z,24.46
2022-09-07T18:57:01.894Z,24.39
2022-09-07T18:59:29.836Z,24.30
2022-09-07T19:02:01.300Z,24.13
2022-09-07T19:05:49.551Z,24.15
2022-09-07T19:07:16.986Z,24.08
2022-09-07T19:09:43.478Z,24.03
2022-09-07T19:12:12.540Z,23.96
2022-09-07T19:14:39.069Z,23.90
2022-09-07T19:17:05.701Z,23.84
2022-09-07T19:19:32.166Z,23.79
2022-09-07T19:21:58.671Z,23.73
2022-09-07T19:24:25.288Z,23.69
2022-09-07T19:26:52.207Z,23.66
2022-09-07T19:29:20.412Z,23.62
2022-09-07T19:31:51.957Z,23.58
2022-09-07T19:34:18.619Z,23.56
2022-09-07T19:36:45.092Z,23.54
2022-09-07T19:39:11.827Z,23.52
2022-09-07T19:41:38.415Z,23.51
2022-09-07T19:44:04.946Z,23.50
2022-09-07T19:46:31.474Z,23.50
2022-09-07T19:48:57.996Z,23.49
2022-09-07T19:51:24.458Z,23.48
2022-09-07T19:53:51.091Z,23.48
2022-09-07T19:56:19.677Z,23.47
2022-09-07T19:58:46.412Z,23.45
2022-09-07T20:01:18.897Z,23.43
2022-09-07T20:03:47.518Z,23.40
2022-09-07T20:06:16.155Z,23.37
2022-09-07T20:08:43.126Z,23.32
2022-09-07T20:11:13.203Z,23.29
2022-09-07T20:13:40.788Z,23.25
2022-09-07T20:16:11.686Z,23.20
2022-09-07T20:18:39.309Z,23.14
2022-09-07T20:21:08.006Z,23.10
2022-09-07T20:23:35.524Z,23.06
2022-09-07T20:26:05.181Z,23.00
2022-09-07T20:28:32.424Z,22.97
2022-09-07T20:30:58.939Z,22.92
2022-09-07T20:33:25.432Z,22.89
2022-09-07T20:35:51.951Z,22.86
2022-09-07T20:38:20.345Z,22.83
2022-09-07T20:40:54.688Z,22.79
2022-09-07T20:43:21.784Z,22.76
2022-09-07T20:45:48.283Z,22.75
2022-09-07T20:48:14.919Z,22.72
2022-09-07T20:50:41.860Z,22.71
2022-09-07T20:53:08.569Z,22.68
2022-09-07T20:55:35.602Z,22.65
2022-09-07T20:58:03.024Z,22.62
2022-09-07T21:00:29.605Z,22.59
2022-09-07T21:02:56.499Z,22.58
2022-09-07T21:05:23.065Z,22.54
2022-09-07T21:07:49.554Z,22.51
2022-09-07T21:10:16.142Z,22.49
2022-09-07T21:12:42.769Z,22.44
2022-09-07T21:15:09.770Z,22.42
2022-09-07T21:17:36.240Z,22.38
2022-09-07T21:20:03.081Z,22.36
2022-09-07T21:22:30.964Z,22.34
2022-09-07T21:24:57.607Z,22.30
2022-09-07T21:27:24.148Z,22.29
2022-09-07T21:29:51.144Z,22.26
2022-09-07T21:32:17.688Z,22.24
2022-09-07T21:34:44.224Z,22.24
2022-09-07T21:37:10.808Z,22.22
2022-09-07T21:39:37.347Z,22.22
2022-09-07T21:42:04.028Z,22.21
2022-09-07T21:44:30.617Z,22.20
2022-09-07T21:46:57.345Z,22.21
2022-09-07T21:49:23.940Z,22.20
2022-09-07T21:51:50.408Z,22.20
2022-09-07T21:54:16.959Z,22.19
2022-09-07T21:56:46.716Z,22.20
2022-09-07T21:59:13.867Z,22.19
2022-09-07T22:01:40.497Z,22.18
2022-09-07T22:04:07.081Z,22.18
2022-09-07T22:06:34.088Z,22.17
2022-09-07T22:09:02.150Z,22.17
2022-09-07T22:11:29.574Z,22.04
2022-09-07T22:13:59.336Z,22.11
2022-09-07T22:16:26.213Z,22.12
2022-09-07T22:18:52.772Z,22.10
2022-09-07T22:21:21.928Z,22.09
2022-09-07T22:23:51.175Z,22.06
2022-09-07T22:26:23.603Z,22.03
2022-09-07T22:28:50.517Z,22.02
2022-09-07T22:31:20.643Z,22.00
2022-09-07T22:33:48.569Z,21.98
2022-09-07T22:36:18.415Z,21.97
2022-09-07T22:38:46.453Z,21.95
2022-09-07T22:41:17.038Z,21.83
2022-09-07T22:43:45.096Z,21.90
2022-09-07T22:46:12.387Z,21.90
2022-09-07T22:48:40.377Z,21.89
2022-09-07T22:51:08.660Z,21.88
2022-09-07T22:53:38.509Z,21.87
2022-09-07T22:56:19.443Z,21.85
2022-09-07T22:58:48.542Z,21.84
2022-09-07T23:01:15.753Z,21.83
2022-09-07T23:03:43.870Z,21.81
2022-09-07T23:06:25.073Z,21.80
2022-09-07T23:08:53.028Z,21.81
2022-09-07T23:11:19.674Z,21.81
2022-09-07T23:13:49.834Z,21.83
2022-09-07T23:16:16.481Z,21.85
2022-09-07T23:18:43.021Z,21.85
2022-09-07T23:21:10.835Z,21.87
2022-09-07T23:23:37.629Z,21.86
2022-09-07T23:26:05.119Z,21.90
2022-09-07T23:28:32.240Z,21.90
2022-09-07T23:30:59.450Z,21.93
2022-09-07T23:33:26.923Z,21.93
2022-09-07T23:36:02.792Z,21.93
2022-09-07T23:38:30.064Z,21.96
2022-09-07T23:40:57.502Z,21.96
2022-09-07T23:43:25.389Z,21.97
2022-09-07T23:45:51.947Z,21.98
2022-09-07T23:48:18.490Z,22.00
2022-09-07T23:50:45.737Z,22.00
2022-09-07T23:53:12.937Z,21.97
2022-09-07T23:55:40.188Z,21.95
2022-09-07T23:58:08.119Z,21.95
